sensor_id;sensor_type;location;lat;lon;timestamp;pressure;altitude;pressure_sealevel;temperature;humidity
6853;BME280;3465;42.144;24.722;2024-02-14T00:01:25;99351.28;;;8.08;74.59
6853;BME280;3465;42.144;24.722;2024-02-14T00:03:50;99356.34;;;8.10;73.45
6853;BME280;3465;42.144;24.722;2024-02-14T00:06:16;99356.00;;;8.16;73.87
6853;BME280;3465;42.144;24.722;2024-02-14T00:08:41;99361.19;;;8.16;74.37
6853;BME280;3465;42.144;24.722;2024-02-14T00:11:07;99360.19;;;8.18;73.89
6853;BME280;3465;42.144;24.722;2024-02-14T00:13:32;99352.97;;;8.23;73.16
6853;BME280;3465;42.144;24.722;2024-02-14T00:16:00;99362.34;;;8.26;72.62
6853;BME280;3465;42.144;24.722;2024-02-14T00:18:26;99350.34;;;8.09;72.13
6853;BME280;3465;42.144;24.722;2024-02-14T00:20:51;99371.25;;;8.20;72.58
6853;BME280;3465;42.144;24.722;2024-02-14T00:23:16;99369.31;;;8.24;72.22
6853;BME280;3465;42.144;24.722;2024-02-14T00:25:42;99373.84;;;8.20;72.52
6853;BME280;3465;42.144;24.722;2024-02-14T00:28:07;99372.59;;;8.27;71.05
6853;BME280;3465;42.144;24.722;2024-02-14T00:30:33;99382.53;;;8.35;71.08
6853;BME280;3465;42.144;24.722;2024-02-14T00:32:59;99380.47;;;8.40;70.81
6853;BME280;3465;42.144;24.722;2024-02-14T00:35:24;99375.22;;;8.41;71.56
6853;BME280;3465;42.144;24.722;2024-02-14T00:37:50;99378.28;;;8.48;69.96
6853;BME280;3465;42.144;24.722;2024-02-14T00:40:16;99378.66;;;8.42;69.72
6853;BME280;3465;42.144;24.722;2024-02-14T00:42:41;99371.84;;;8.25;70.59
6853;BME280;3465;42.144;24.722;2024-02-14T00:45:07;99380.84;;;8.34;70.24
6853;BME280;3465;42.144;24.722;2024-02-14T00:47:34;99378.34;;;8.32;70.38
6853;BME280;3465;42.144;24.722;2024-02-14T00:50:00;99380.84;;;8.34;71.56
6853;BME280;3465;42.144;24.722;2024-02-14T00:52:25;99371.13;;;8.37;70.66
6853;BME280;3465;42.144;24.722;2024-02-14T00:54:51;99376.66;;;8.31;71.71
6853;BME280;3465;42.144;24.722;2024-02-14T00:57:16;99383.25;;;8.37;71.93
6853;BME280;3465;42.144;24.722;2024-02-14T00:59:43;99384.72;;;8.27;72.76
6853;BME280;3465;42.144;24.722;2024-02-14T01:02:08;99352.66;;;8.14;71.77
6853;BME280;3465;42.144;24.722;2024-02-14T01:04:34;99380.69;;;8.21;71.42
6853;BME280;3465;42.144;24.722;2024-02-14T01:07:02;99381.13;;;8.14;71.82
6853;BME280;3465;42.144;24.722;2024-02-14T01:09:28;99389.06;;;8.11;72.37
6853;BME280;3465;42.144;24.722;2024-02-14T01:11:53;99390.47;;;8.16;72.17
6853;BME280;3465;42.144;24.722;2024-02-14T01:14:19;99376.94;;;8.11;71.87
6853;BME280;3465;42.144;24.722;2024-02-14T01:16:45;99390.91;;;8.09;71.86
6853;BME280;3465;42.144;24.722;2024-02-14T01:19:11;99384.91;;;8.08;72.28
6853;BME280;3465;42.144;24.722;2024-02-14T01:21:37;99378.72;;;8.11;71.16
6853;BME280;3465;42.144;24.722;2024-02-14T01:24:03;99378.09;;;8.21;71.65
6853;BME280;3465;42.144;24.722;2024-02-14T01:26:30;99391.31;;;8.17;70.85
6853;BME280;3465;42.144;24.722;2024-02-14T01:28:55;99379.88;;;8.21;70.24
6853;BME280;3465;42.144;24.722;2024-02-14T01:31:21;99381.03;;;8.15;71.88
6853;BME280;3465;42.144;24.722;2024-02-14T01:33:47;99394.44;;;8.22;70.87
6853;BME280;3465;42.144;24.722;2024-02-14T01:36:13;99395.28;;;8.22;71.07
6853;BME280;3465;42.144;24.722;2024-02-14T01:38:38;99384.53;;;8.30;70.22
6853;BME280;3465;42.144;24.722;2024-02-14T01:41:05;99390.63;;;8.29;70.61
6853;BME280;3465;42.144;24.722;2024-02-14T01:43:31;99388.13;;;8.12;70.87
6853;BME280;3465;42.144;24.722;2024-02-14T01:46:05;99398.63;;;8.24;71.21
6853;BME280;3465;42.144;24.722;2024-02-14T01:48:31;99384.53;;;8.30;70.31
6853;BME280;3465;42.144;24.722;2024-02-14T01:50:57;99390.72;;;8.27;70.51
6853;BME280;3465;42.144;24.722;2024-02-14T01:53:24;99387.13;;;8.30;70.48
6853;BME280;3465;42.144;24.722;2024-02-14T01:55:51;99386.38;;;8.28;68.99
6853;BME280;3465;42.144;24.722;2024-02-14T01:58:17;99382.88;;;8.29;68.66
6853;BME280;3465;42.144;24.722;2024-02-14T02:00:43;99387.38;;;8.25;69.19
6853;BME280;3465;42.144;24.722;2024-02-14T02:03:09;99399.06;;;8.32;68.83
6853;BME280;3465;42.144;24.722;2024-02-14T02:05:35;99396.84;;;8.40;68.89
6853;BME280;3465;42.144;24.722;2024-02-14T02:08:01;99399.16;;;8.31;68.40
6853;BME280;3465;42.144;24.722;2024-02-14T02:10:27;99408.84;;;8.41;68.25
6853;BME280;3465;42.144;24.722;2024-02-14T02:12:58;99406.38;;;8.40;68.74
6853;BME280;3465;42.144;24.722;2024-02-14T02:15:25;99412.13;;;8.45;66.96
6853;BME280;3465;42.144;24.722;2024-02-14T02:17:50;99402.06;;;8.55;68.24
6853;BME280;3465;42.144;24.722;2024-02-14T02:20:18;99418.00;;;8.33;68.14
6853;BME280;3465;42.144;24.722;2024-02-14T02:22:46;99418.91;;;8.32;67.67
6853;BME280;3465;42.144;24.722;2024-02-14T02:25:12;99414.47;;;8.34;68.98
6853;BME280;3465;42.144;24.722;2024-02-14T02:27:37;99417.47;;;8.42;67.81
6853;BME280;3465;42.144;24.722;2024-02-14T02:30:06;99398.63;;;8.24;68.13
6853;BME280;3465;42.144;24.722;2024-02-14T02:32:33;99427.06;;;8.40;68.22
6853;BME280;3465;42.144;24.722;2024-02-14T02:34:59;99428.41;;;8.31;68.50
6853;BME280;3465;42.144;24.722;2024-02-14T02:37:28;99428.00;;;8.39;68.22
6853;BME280;3465;42.144;24.722;2024-02-14T02:39:55;99424.94;;;8.32;68.34
6853;BME280;3465;42.144;24.722;2024-02-14T02:42:21;99436.75;;;8.36;68.23
6853;BME280;3465;42.144;24.722;2024-02-14T02:44:49;99402.47;;;8.17;68.37
6853;BME280;3465;42.144;24.722;2024-02-14T02:47:14;99429.50;;;8.27;68.36
6853;BME280;3465;42.144;24.722;2024-02-14T02:49:42;99445.53;;;8.18;68.91
6853;BME280;3465;42.144;24.722;2024-02-14T02:52:10;99438.53;;;8.20;68.37
6853;BME280;3465;42.144;24.722;2024-02-14T02:54:36;99436.28;;;8.30;69.00
6853;BME280;3465;42.144;24.722;2024-02-14T02:57:01;99442.69;;;8.38;67.96
6853;BME280;3465;42.144;24.722;2024-02-14T02:59:30;99444.03;;;8.30;68.01
6853;BME280;3465;42.144;24.722;2024-02-14T03:01:55;99450.81;;;8.32;68.33
6853;BME280;3465;42.144;24.722;2024-02-14T03:04:23;99456.22;;;8.28;67.11
6853;BME280;3465;42.144;24.722;2024-02-14T03:06:49;99456.41;;;8.25;68.71
6853;BME280;3465;42.144;24.722;2024-02-14T03:09:14;99453.38;;;8.32;68.14
6853;BME280;3465;42.144;24.722;2024-02-14T03:11:40;99461.41;;;8.28;68.93
6853;BME280;3465;42.144;24.722;2024-02-14T03:14:06;99458.66;;;8.31;69.13
6853;BME280;3465;42.144;24.722;2024-02-14T03:16:33;99468.31;;;8.43;67.57
6853;BME280;3465;42.144;24.722;2024-02-14T03:18:59;99460.91;;;8.37;68.93
6853;BME280;3465;42.144;24.722;2024-02-14T03:21:25;99469.66;;;8.34;69.48
6853;BME280;3465;42.144;24.722;2024-02-14T03:23:52;99470.41;;;8.36;66.86
6853;BME280;3465;42.144;24.722;2024-02-14T03:26:19;99482.91;;;8.44;68.43
6853;BME280;3465;42.144;24.722;2024-02-14T03:28:45;99487.03;;;8.32;68.25
6853;BME280;3465;42.144;24.722;2024-02-14T03:31:10;99474.84;;;8.19;68.02
6853;BME280;3465;42.144;24.722;2024-02-14T03:33:37;99489.19;;;8.24;68.63
6853;BME280;3465;42.144;24.722;2024-02-14T03:36:02;99483.84;;;8.27;68.05
6853;BME280;3465;42.144;24.722;2024-02-14T03:38:28;99477.94;;;8.25;68.57
6853;BME280;3465;42.144;24.722;2024-02-14T03:40:54;99494.59;;;8.20;68.06
6853;BME280;3465;42.144;24.722;2024-02-14T03:43:19;99481.44;;;8.09;68.59
6853;BME280;3465;42.144;24.722;2024-02-14T03:45:45;99483.69;;;8.15;68.25
6853;BME280;3465;42.144;24.722;2024-02-14T03:48:11;99496.03;;;8.10;69.09
6853;BME280;3465;42.144;24.722;2024-02-14T03:50:40;99498.78;;;8.22;68.67
6853;BME280;3465;42.144;24.722;2024-02-14T03:53:05;99495.03;;;8.12;69.03
6853;BME280;3465;42.144;24.722;2024-02-14T03:55:31;99504.72;;;8.09;68.64
6853;BME280;3465;42.144;24.722;2024-02-14T03:57:57;99491.03;;;8.07;69.26
6853;BME280;3465;42.144;24.722;2024-02-14T04:00:22;99509.03;;;8.24;68.89
6853;BME280;3465;42.144;24.722;2024-02-14T04:02:48;99511.81;;;8.21;68.79
6853;BME280;3465;42.144;24.722;2024-02-14T04:05:14;99520.22;;;8.24;67.36
6853;BME280;3465;42.144;24.722;2024-02-14T04:07:40;99521.00;;;8.11;68.94
6853;BME280;3465;42.144;24.722;2024-02-14T04:10:06;99526.31;;;8.23;67.59
6853;BME280;3465;42.144;24.722;2024-02-14T04:12:32;99512.63;;;8.21;67.67
6853;BME280;3465;42.144;24.722;2024-02-14T04:14:57;99527.47;;;8.18;68.01
6853;BME280;3465;42.144;24.722;2024-02-14T04:17:23;99522.72;;;8.10;67.94
6853;BME280;3465;42.144;24.722;2024-02-14T04:19:50;99519.91;;;8.15;68.48
6853;BME280;3465;42.144;24.722;2024-02-14T04:22:15;99533.25;;;8.23;67.53
6853;BME280;3465;42.144;24.722;2024-02-14T04:24:41;99536.09;;;8.03;68.56
6853;BME280;3465;42.144;24.722;2024-02-14T04:27:07;99540.09;;;8.08;67.67
6853;BME280;3465;42.144;24.722;2024-02-14T04:29:32;99539.34;;;8.06;67.95
6853;BME280;3465;42.144;24.722;2024-02-14T04:31:59;99533.84;;;8.12;67.24
6853;BME280;3465;42.144;24.722;2024-02-14T04:34:25;99530.50;;;8.10;67.56
6853;BME280;3465;42.144;24.722;2024-02-14T04:36:51;99536.31;;;8.14;66.68
6853;BME280;3465;42.144;24.722;2024-02-14T04:39:17;99549.69;;;8.22;66.84
6853;BME280;3465;42.144;24.722;2024-02-14T04:41:42;99555.78;;;8.21;66.89
6853;BME280;3465;42.144;24.722;2024-02-14T04:44:08;99546.53;;;8.17;65.93
6853;BME280;3465;42.144;24.722;2024-02-14T04:46:34;99557.63;;;8.19;66.08
6853;BME280;3465;42.144;24.722;2024-02-14T04:49:01;99551.22;;;8.26;66.36
6853;BME280;3465;42.144;24.722;2024-02-14T04:51:30;99543.50;;;8.24;65.90
6853;BME280;3465;42.144;24.722;2024-02-14T04:53:57;99531.06;;;8.15;66.08
6853;BME280;3465;42.144;24.722;2024-02-14T04:56:28;99534.66;;;8.13;66.94
6853;BME280;3465;42.144;24.722;2024-02-14T04:58:54;99560.97;;;8.21;66.18
6853;BME280;3465;42.144;24.722;2024-02-14T05:01:22;99566.78;;;8.24;65.53
6853;BME280;3465;42.144;24.722;2024-02-14T05:03:48;99544.50;;;8.22;65.79
6853;BME280;3465;42.144;24.722;2024-02-14T05:06:15;99559.13;;;8.23;65.58
6853;BME280;3465;42.144;24.722;2024-02-14T05:08:40;99560.66;;;8.27;66.26
6853;BME280;3465;42.144;24.722;2024-02-14T05:11:06;99569.91;;;8.31;64.72
6853;BME280;3465;42.144;24.722;2024-02-14T05:13:31;99568.88;;;8.33;64.08
6853;BME280;3465;42.144;24.722;2024-02-14T05:15:57;99567.38;;;8.29;65.27
6853;BME280;3465;42.144;24.722;2024-02-14T05:18:23;99534.50;;;8.00;65.44
6853;BME280;3465;42.144;24.722;2024-02-14T05:20:48;99572.31;;;8.34;65.25
6853;BME280;3465;42.144;24.722;2024-02-14T05:23:14;99581.72;;;8.19;64.94
6853;BME280;3465;42.144;24.722;2024-02-14T05:25:43;99584.50;;;8.32;64.91
6853;BME280;3465;42.144;24.722;2024-02-14T05:28:08;99588.03;;;8.31;64.10
6853;BME280;3465;42.144;24.722;2024-02-14T05:30:39;99596.16;;;8.23;64.47
6853;BME280;3465;42.144;24.722;2024-02-14T05:33:04;99599.19;;;8.31;64.70
6853;BME280;3465;42.144;24.722;2024-02-14T05:35:30;99591.44;;;8.31;64.59
6853;BME280;3465;42.144;24.722;2024-02-14T05:37:55;99574.69;;;8.21;64.13
6853;BME280;3465;42.144;24.722;2024-02-14T05:40:21;99597.88;;;8.40;63.96
6853;BME280;3465;42.144;24.722;2024-02-14T05:42:46;99597.28;;;8.35;63.57
6853;BME280;3465;42.144;24.722;2024-02-14T05:45:12;99604.44;;;8.45;64.99
6853;BME280;3465;42.144;24.722;2024-02-14T05:47:38;99609.47;;;8.48;64.30
6853;BME280;3465;42.144;24.722;2024-02-14T05:50:05;99604.53;;;8.44;64.16
6853;BME280;3465;42.144;24.722;2024-02-14T05:52:30;99607.44;;;8.53;64.40
6853;BME280;3465;42.144;24.722;2024-02-14T05:54:56;99618.31;;;8.60;64.06
6853;BME280;3465;42.144;24.722;2024-02-14T05:57:21;99611.19;;;8.64;62.73
6853;BME280;3465;42.144;24.722;2024-02-14T05:59:47;99608.03;;;8.59;63.13
6853;BME280;3465;42.144;24.722;2024-02-14T06:02:12;99613.56;;;8.52;62.89
6853;BME280;3465;42.144;24.722;2024-02-14T06:04:38;99634.59;;;8.62;63.39
6853;BME280;3465;42.144;24.722;2024-02-14T06:07:03;99619.88;;;8.78;62.42
6853;BME280;3465;42.144;24.722;2024-02-14T06:09:32;99635.66;;;8.74;62.75
6853;BME280;3465;42.144;24.722;2024-02-14T06:11:57;99634.72;;;8.90;63.19
6853;BME280;3465;42.144;24.722;2024-02-14T06:14:23;99635.72;;;8.88;62.86
6853;BME280;3465;42.144;24.722;2024-02-14T06:16:49;99650.00;;;8.95;62.77
6853;BME280;3465;42.144;24.722;2024-02-14T06:19:15;99645.59;;;8.97;61.25
6853;BME280;3465;42.144;24.722;2024-02-14T06:21:43;99622.13;;;8.84;62.61
6853;BME280;3465;42.144;24.722;2024-02-14T06:24:08;99655.66;;;9.17;62.09
6853;BME280;3465;42.144;24.722;2024-02-14T06:26:35;99646.88;;;9.04;62.53
6853;BME280;3465;42.144;24.722;2024-02-14T06:29:01;99650.22;;;9.06;61.31
6853;BME280;3465;42.144;24.722;2024-02-14T06:31:27;99650.72;;;9.12;62.08
6853;BME280;3465;42.144;24.722;2024-02-14T06:33:54;99657.59;;;9.13;60.79
6853;BME280;3465;42.144;24.722;2024-02-14T06:36:20;99655.41;;;9.06;61.95
6853;BME280;3465;42.144;24.722;2024-02-14T06:38:45;99653.66;;;9.06;60.79
6853;BME280;3465;42.144;24.722;2024-02-14T06:41:12;99668.13;;;9.10;61.63
6853;BME280;3465;42.144;24.722;2024-02-14T06:43:37;99676.81;;;9.09;61.54
6853;BME280;3465;42.144;24.722;2024-02-14T06:46:05;99668.38;;;9.06;61.47
6853;BME280;3465;42.144;24.722;2024-02-14T06:48:31;99670.19;;;9.19;61.26
6853;BME280;3465;42.144;24.722;2024-02-14T06:50:57;99680.97;;;9.27;59.46
6853;BME280;3465;42.144;24.722;2024-02-14T06:53:22;99687.06;;;9.26;60.46
6853;BME280;3465;42.144;24.722;2024-02-14T06:55:48;99677.22;;;9.02;62.36
6853;BME280;3465;42.144;24.722;2024-02-14T06:58:13;99682.25;;;9.05;61.53
6853;BME280;3465;42.144;24.722;2024-02-14T07:00:39;99692.19;;;9.12;60.36
6853;BME280;3465;42.144;24.722;2024-02-14T07:03:05;99700.03;;;9.11;60.73
6853;BME280;3465;42.144;24.722;2024-02-14T07:05:30;99707.47;;;9.17;60.43
6853;BME280;3465;42.144;24.722;2024-02-14T07:07:56;99706.72;;;9.15;60.69
6853;BME280;3465;42.144;24.722;2024-02-14T07:10:21;99708.31;;;9.17;60.77
6853;BME280;3465;42.144;24.722;2024-02-14T07:12:47;99709.13;;;9.18;61.24
6853;BME280;3465;42.144;24.722;2024-02-14T07:15:13;99718.00;;;9.29;60.64
6853;BME280;3465;42.144;24.722;2024-02-14T07:17:38;99720.50;;;9.31;60.65
6853;BME280;3465;42.144;24.722;2024-02-14T07:20:05;99723.00;;;9.32;60.53
6853;BME280;3465;42.144;24.722;2024-02-14T07:22:31;99729.00;;;9.33;59.31
6853;BME280;3465;42.144;24.722;2024-02-14T07:24:57;99708.13;;;9.20;60.42
6853;BME280;3465;42.144;24.722;2024-02-14T07:27:22;99717.59;;;9.21;60.10
6853;BME280;3465;42.144;24.722;2024-02-14T07:29:49;99727.66;;;9.42;61.32
6853;BME280;3465;42.144;24.722;2024-02-14T07:32:15;99741.03;;;9.50;60.20
6853;BME280;3465;42.144;24.722;2024-02-14T07:34:42;99729.41;;;9.41;59.85
6853;BME280;3465;42.144;24.722;2024-02-14T07:37:07;99744.94;;;9.57;60.60
6853;BME280;3465;42.144;24.722;2024-02-14T07:39:33;99742.97;;;9.60;59.60
6853;BME280;3465;42.144;24.722;2024-02-14T07:42:03;99754.75;;;9.52;58.53
6853;BME280;3465;42.144;24.722;2024-02-14T07:44:29;99747.06;;;9.34;59.62
6853;BME280;3465;42.144;24.722;2024-02-14T07:46:54;99752.84;;;9.40;58.55
6853;BME280;3465;42.144;24.722;2024-02-14T07:49:20;99761.72;;;9.35;60.44
6853;BME280;3465;42.144;24.722;2024-02-14T07:51:46;99760.78;;;9.36;59.69
6853;BME280;3465;42.144;24.722;2024-02-14T07:54:11;99757.34;;;9.36;59.61
6853;BME280;3465;42.144;24.722;2024-02-14T07:56:37;99768.03;;;9.46;58.32
6853;BME280;3465;42.144;24.722;2024-02-14T07:59:03;99770.34;;;9.50;58.92
6853;BME280;3465;42.144;24.722;2024-02-14T08:01:30;99767.84;;;9.49;57.94
6853;BME280;3465;42.144;24.722;2024-02-14T08:03:57;99765.16;;;9.50;58.01
6853;BME280;3465;42.144;24.722;2024-02-14T08:06:23;99768.16;;;9.58;57.87
6853;BME280;3465;42.144;24.722;2024-02-14T08:08:51;99762.97;;;9.58;58.23
6853;BME280;3465;42.144;24.722;2024-02-14T08:11:22;99773.97;;;9.48;57.75
6853;BME280;3465;42.144;24.722;2024-02-14T08:13:48;99773.69;;;9.68;58.56
6853;BME280;3465;42.144;24.722;2024-02-14T08:16:13;99770.19;;;9.53;57.45
6853;BME280;3465;42.144;24.722;2024-02-14T08:18:39;99784.47;;;9.76;56.49
6853;BME280;3465;42.144;24.722;2024-02-14T08:21:05;99781.72;;;9.63;57.35
6853;BME280;3465;42.144;24.722;2024-02-14T08:23:31;99781.03;;;9.75;58.49
6853;BME280;3465;42.144;24.722;2024-02-14T08:25:56;99777.38;;;9.64;58.06
6853;BME280;3465;42.144;24.722;2024-02-14T08:28:22;99791.44;;;9.60;57.59
6853;BME280;3465;42.144;24.722;2024-02-14T08:30:49;99782.38;;;9.67;57.23
6853;BME280;3465;42.144;24.722;2024-02-14T08:33:14;99786.66;;;9.68;57.68
6853;BME280;3465;42.144;24.722;2024-02-14T08:35:40;99794.09;;;9.74;58.25
6853;BME280;3465;42.144;24.722;2024-02-14T08:38:05;99799.44;;;9.71;55.93
6853;BME280;3465;42.144;24.722;2024-02-14T08:40:31;99798.13;;;9.64;56.34
6853;BME280;3465;42.144;24.722;2024-02-14T08:42:57;99799.56;;;9.54;57.41
6853;BME280;3465;42.144;24.722;2024-02-14T08:45:22;99799.22;;;9.60;57.92
6853;BME280;3465;42.144;24.722;2024-02-14T08:47:48;99784.16;;;9.51;57.03
6853;BME280;3465;42.144;24.722;2024-02-14T08:50:13;99804.06;;;9.66;57.55
6853;BME280;3465;42.144;24.722;2024-02-14T08:52:39;99809.41;;;9.63;57.40
6853;BME280;3465;42.144;24.722;2024-02-14T08:55:05;99814.63;;;9.47;58.28
6853;BME280;3465;42.144;24.722;2024-02-14T08:57:34;99812.66;;;9.66;58.43
6853;BME280;3465;42.144;24.722;2024-02-14T09:00:00;99812.94;;;9.62;57.59
6853;BME280;3465;42.144;24.722;2024-02-14T09:02:27;99823.56;;;9.57;57.38
6853;BME280;3465;42.144;24.722;2024-02-14T09:04:53;99821.47;;;9.64;56.92
6853;BME280;3465;42.144;24.722;2024-02-14T09:07:19;99820.66;;;9.48;57.23
6853;BME280;3465;42.144;24.722;2024-02-14T09:09:44;99827.72;;;9.44;58.09
6853;BME280;3465;42.144;24.722;2024-02-14T09:12:11;99829.50;;;9.28;58.71
6853;BME280;3465;42.144;24.722;2024-02-14T09:14:36;99825.31;;;9.41;59.27
6853;BME280;3465;42.144;24.722;2024-02-14T09:17:02;99834.84;;;9.41;58.10
6853;BME280;3465;42.144;24.722;2024-02-14T09:19:27;99833.66;;;9.46;58.08
6853;BME280;3465;42.144;24.722;2024-02-14T09:21:53;99828.50;;;9.62;58.92
6853;BME280;3465;42.144;24.722;2024-02-14T09:24:18;99842.13;;;9.50;57.42
6853;BME280;3465;42.144;24.722;2024-02-14T09:26:44;99835.53;;;9.28;58.73
6853;BME280;3465;42.144;24.722;2024-02-14T09:29:09;99843.97;;;9.16;60.81
6853;BME280;3465;42.144;24.722;2024-02-14T09:31:39;99850.16;;;9.29;61.31
6853;BME280;3465;42.144;24.722;2024-02-14T09:34:05;99828.50;;;9.15;61.41
6853;BME280;3465;42.144;24.722;2024-02-14T09:36:31;99852.25;;;9.07;62.94
6853;BME280;3465;42.144;24.722;2024-02-14T09:38:56;99841.03;;;8.91;61.86
6853;BME280;3465;42.144;24.722;2024-02-14T09:41:26;99839.44;;;8.89;64.46
6853;BME280;3465;42.144;24.722;2024-02-14T09:43:55;99850.31;;;8.95;64.33
6853;BME280;3465;42.144;24.722;2024-02-14T09:46:24;99854.13;;;8.88;65.45
6853;BME280;3465;42.144;24.722;2024-02-14T09:48:50;99842.22;;;9.01;65.87
6853;BME280;3465;42.144;24.722;2024-02-14T09:51:17;99846.59;;;8.84;66.07
6853;BME280;3465;42.144;24.722;2024-02-14T09:53:43;99841.38;;;9.01;66.01
6853;BME280;3465;42.144;24.722;2024-02-14T09:56:10;99843.19;;;8.99;64.80
6853;BME280;3465;42.144;24.722;2024-02-14T09:58:40;99838.53;;;9.05;65.73
6853;BME280;3465;42.144;24.722;2024-02-14T10:01:06;99842.97;;;9.03;66.77
6853;BME280;3465;42.144;24.722;2024-02-14T10:03:32;99839.19;;;9.09;65.13
6853;BME280;3465;42.144;24.722;2024-02-14T10:05:59;99838.28;;;9.10;65.29
6853;BME280;3465;42.144;24.722;2024-02-14T10:08:24;99833.59;;;9.16;64.54
6853;BME280;3465;42.144;24.722;2024-02-14T10:10:51;99838.03;;;9.30;64.28
6853;BME280;3465;42.144;24.722;2024-02-14T10:13:17;99836.47;;;9.27;63.78
6853;BME280;3465;42.144;24.722;2024-02-14T10:15:42;99840.88;;;9.41;62.33
6853;BME280;3465;42.144;24.722;2024-02-14T10:18:08;99841.63;;;9.59;61.18
6853;BME280;3465;42.144;24.722;2024-02-14T10:20:37;99825.06;;;9.61;60.52
6853;BME280;3465;42.144;24.722;2024-02-14T10:23:10;99830.41;;;9.74;60.67
6853;BME280;3465;42.144;24.722;2024-02-14T10:25:37;99813.19;;;9.57;59.25
6853;BME280;3465;42.144;24.722;2024-02-14T10:28:06;99826.38;;;9.68;60.16
6853;BME280;3465;42.144;24.722;2024-02-14T10:30:35;99833.44;;;9.80;60.34
6853;BME280;3465;42.144;24.722;2024-02-14T10:33:03;99813.25;;;9.71;57.40
6853;BME280;3465;42.144;24.722;2024-02-14T10:35:30;99825.31;;;9.86;59.72
6853;BME280;3465;42.144;24.722;2024-02-14T10:37:58;99826.25;;;9.85;57.91
6853;BME280;3465;42.144;24.722;2024-02-14T10:40:28;99837.19;;;10.06;56.61
6853;BME280;3465;42.144;24.722;2024-02-14T10:42:55;99820.88;;;9.88;56.02
6853;BME280;3465;42.144;24.722;2024-02-14T10:45:20;99820.84;;;10.04;57.43
6853;BME280;3465;42.144;24.722;2024-02-14T10:47:46;99818.41;;;10.16;56.72
6853;BME280;3465;42.144;24.722;2024-02-14T10:50:16;99811.28;;;10.04;55.53
6853;BME280;3465;42.144;24.722;2024-02-14T10:52:41;99813.06;;;10.48;57.00
6853;BME280;3465;42.144;24.722;2024-02-14T10:55:08;99800.94;;;10.48;55.26
6853;BME280;3465;42.144;24.722;2024-02-14T10:57:34;99792.41;;;10.60;55.45
6853;BME280;3465;42.144;24.722;2024-02-14T11:00:03;99799.22;;;11.03;56.90
6853;BME280;3465;42.144;24.722;2024-02-14T11:02:30;99788.47;;;10.95;52.46
6853;BME280;3465;42.144;24.722;2024-02-14T11:04:58;99782.06;;;10.87;56.25
6853;BME280;3465;42.144;24.722;2024-02-14T11:07:23;99811.97;;;11.35;52.84
6853;BME280;3465;42.144;24.722;2024-02-14T11:10:06;99800.53;;;11.64;51.63
6853;BME280;3465;42.144;24.722;2024-02-14T11:12:36;99807.81;;;11.98;52.34
6853;BME280;3465;42.144;24.722;2024-02-14T11:15:20;99805.03;;;12.01;51.37
6853;BME280;3465;42.144;24.722;2024-02-14T11:17:47;99797.16;;;12.40;51.41
6853;BME280;3465;42.144;24.722;2024-02-14T11:20:19;99788.91;;;12.59;49.40
6853;BME280;3465;42.144;24.722;2024-02-14T11:25:39;99800.16;;;12.34;49.32
6853;BME280;3465;42.144;24.722;2024-02-14T11:28:15;99809.09;;;12.18;50.03
6853;BME280;3465;42.144;24.722;2024-02-14T11:30:42;99800.97;;;12.60;48.12
6853;BME280;3465;42.144;24.722;2024-02-14T11:33:28;99796.94;;;13.30;47.85
6853;BME280;3465;42.144;24.722;2024-02-14T11:35:54;99799.81;;;13.62;44.93
6853;BME280;3465;42.144;24.722;2024-02-14T11:38:21;99803.53;;;14.05;44.96
6853;BME280;3465;42.144;24.722;2024-02-14T11:40:48;99801.19;;;13.78;45.16
6853;BME280;3465;42.144;24.722;2024-02-14T11:43:18;99803.19;;;13.27;45.46
6853;BME280;3465;42.144;24.722;2024-02-14T11:45:45;99804.97;;;12.40;48.16
6853;BME280;3465;42.144;24.722;2024-02-14T11:48:14;99814.81;;;12.10;48.45
6853;BME280;3465;42.144;24.722;2024-02-14T11:50:40;99810.28;;;12.39;49.96
6853;BME280;3465;42.144;24.722;2024-02-14T11:53:07;99806.63;;;12.41;48.04
6853;BME280;3465;42.144;24.722;2024-02-14T11:55:37;99794.41;;;12.80;47.06
6853;BME280;3465;42.144;24.722;2024-02-14T11:58:16;99793.22;;;12.96;46.89
6853;BME280;3465;42.144;24.722;2024-02-14T12:00:46;99798.41;;;13.21;45.32
6853;BME280;3465;42.144;24.722;2024-02-14T12:03:20;99809.13;;;12.43;47.62
6853;BME280;3465;42.144;24.722;2024-02-14T12:05:47;99807.88;;;12.36;48.28
6853;BME280;3465;42.144;24.722;2024-02-14T12:08:14;99806.19;;;12.60;48.44
6853;BME280;3465;42.144;24.722;2024-02-14T12:10:42;99807.34;;;12.18;47.49
6853;BME280;3465;42.144;24.722;2024-02-14T12:13:08;99802.56;;;12.25;48.15
6853;BME280;3465;42.144;24.722;2024-02-14T12:15:40;99807.06;;;12.35;48.37
6853;BME280;3465;42.144;24.722;2024-02-14T12:18:08;99804.75;;;12.31;48.12
6853;BME280;3465;42.144;24.722;2024-02-14T12:20:34;99810.66;;;11.95;48.07
6853;BME280;3465;42.144;24.722;2024-02-14T12:23:00;99809.84;;;12.07;47.95
6853;BME280;3465;42.144;24.722;2024-02-14T12:25:25;99801.72;;;12.37;47.79
6853;BME280;3465;42.144;24.722;2024-02-14T12:27:51;99798.00;;;12.53;46.71
6853;BME280;3465;42.144;24.722;2024-02-14T12:30:18;99802.97;;;12.44;47.46
6853;BME280;3465;42.144;24.722;2024-02-14T12:32:45;99809.91;;;11.93;49.79
6853;BME280;3465;42.144;24.722;2024-02-14T12:35:11;99799.63;;;12.42;47.74
6853;BME280;3465;42.144;24.722;2024-02-14T12:37:37;99802.19;;;13.17;44.75
6853;BME280;3465;42.144;24.722;2024-02-14T12:40:03;99800.75;;;13.84;43.98
6853;BME280;3465;42.144;24.722;2024-02-14T12:42:30;99799.41;;;14.13;42.66
6853;BME280;3465;42.144;24.722;2024-02-14T12:44:57;99798.09;;;14.65;42.16
6853;BME280;3465;42.144;24.722;2024-02-14T12:47:23;99806.84;;;13.96;41.80
6853;BME280;3465;42.144;24.722;2024-02-14T12:49:49;99804.13;;;13.26;44.00
6853;BME280;3465;42.144;24.722;2024-02-14T12:52:15;99807.59;;;13.14;45.41
6853;BME280;3465;42.144;24.722;2024-02-14T12:54:40;99813.75;;;13.73;44.19
6853;BME280;3465;42.144;24.722;2024-02-14T12:57:06;99792.28;;;14.15;42.20
6853;BME280;3465;42.144;24.722;2024-02-14T12:59:32;99784.63;;;14.91;38.73
6853;BME280;3465;42.144;24.722;2024-02-14T13:01:57;99798.28;;;14.28;40.89
6853;BME280;3465;42.144;24.722;2024-02-14T13:04:23;99785.78;;;13.28;42.73
6853;BME280;3465;42.144;24.722;2024-02-14T13:06:48;99792.06;;;13.00;44.43
6853;BME280;3465;42.144;24.722;2024-02-14T13:09:14;99805.50;;;13.19;44.31
6853;BME280;3465;42.144;24.722;2024-02-14T13:11:40;99816.19;;;13.04;45.40
6853;BME280;3465;42.144;24.722;2024-02-14T13:14:08;99805.22;;;12.86;44.61
6853;BME280;3465;42.144;24.722;2024-02-14T13:16:34;99819.50;;;12.18;46.11
6853;BME280;3465;42.144;24.722;2024-02-14T13:19:00;99820.88;;;11.57;47.02